Time;durP1;ratioP1;P1;durP2;ratioP2;P2;SDS_P1;SDS_P2;PMS_P1;PMS_P2;Temp;Humidity;BMP_temperature;BMP_pressure;BME280_temperature;BME280_humidity;BME280_pressure;Samples;Min_cycle;Max_cycle;Signal;HPM_P1;HPM_P2
2022/08/31 00:06:37;;;;;;;12.40;6.70;;;;;;;13.30;76.03;99047.20;432553;1270;98017;-40
2022/08/31 00:16:47;;;;;;;13.10;6.90;;;;;;;13.27;76.37;99045.23;432533;1271;108894;-41
2022/08/31 00:26:54;;;;;;;8.80;6.60;;;;;;;13.37;76.76;99051.53;432436;1271;99351;-41
2022/08/31 00:47:11;;;;;;;13.80;9.20;;;;;;;13.37;77.08;99049.45;432235;1271;109254;-41
2022/08/31 00:57:19;;;;;;;14.90;9.40;;;;;;;13.47;77.58;99042.46;432532;1271;98020;-41
2022/08/31 01:07:36;;;;;;;24.20;11.30;;;;;;;13.64;77.81;99042.55;432333;1270;108907;-41
2022/08/31 01:17:46;;;;;;;14.70;10.30;;;;;;;13.67;77.86;99031.66;433077;1259;98061;-41
2022/08/31 01:27:55;;;;;;;15.80;10.90;;;;;;;13.82;78.10;99025.27;432500;1270;112068;-41
2022/08/31 01:38:03;;;;;;;16.00;10.80;;;;;;;13.80;78.13;99023.48;432566;1270;109178;-41
2022/08/31 01:48:10;;;;;;;21.10;9.60;;;;;;;13.87;78.45;99012.75;432648;1270;99264;-42
2022/08/31 01:58:17;;;;;;;17.80;9.70;;;;;;;14.05;78.75;99010.91;432396;1270;108773;-40
2022/08/31 02:08:25;;;;;;;19.00;11.30;;;;;;;14.18;78.82;99008.71;432321;1271;98011;-40
2022/08/31 02:18:34;;;;;;;17.00;10.20;;;;;;;14.20;78.67;99007.08;432479;1270;112044;-40
2022/08/31 02:28:41;;;;;;;16.40;10.70;;;;;;;14.03;78.52;99011.73;432277;1270;108775;-40
2022/08/31 02:38:49;;;;;;;18.80;9.90;;;;;;;13.96;78.79;99018.09;432783;1270;99235;-40
2022/08/31 02:48:57;;;;;;;18.20;9.20;;;;;;;14.05;79.08;99024.75;432578;1270;108846;-42
2022/08/31 02:59:04;;;;;;;12.00;8.00;;;;;;;14.11;79.22;99018.34;431853;1270;99270;-39
2022/08/31 03:09:11;;;;;;;13.80;7.20;;;;;;;14.18;79.35;99010.36;432141;1270;111891;-42
2022/08/31 03:19:19;;;;;;;15.40;7.70;;;;;;;14.22;79.38;99013.73;432372;1271;108957;-39
2022/08/31 03:29:26;;;;;;;17.00;6.90;;;;;;;14.10;79.35;99015.73;432376;1270;98860;-39
2022/08/31 03:39:33;;;;;;;12.20;7.10;;;;;;;14.10;79.52;99023.21;432591;1270;108968;-41
2022/08/31 03:49:41;;;;;;;10.80;6.10;;;;;;;14.16;79.80;99023.83;432497;1270;99261;-41
2022/08/31 03:59:51;;;;;;;11.00;6.70;;;;;;;14.28;79.84;99023.54;432647;1270;112466;-41
2022/08/31 04:09:59;;;;;;;9.00;6.30;;;;;;;14.31;79.88;99033.10;432536;1270;108725;-43
2022/08/31 04:20:04;;;;;;;10.90;6.80;;;;;;;14.28;79.95;99030.20;432290;1269;99529;-41
2022/08/31 04:30:13;;;;;;;9.60;7.70;;;;;;;14.40;80.13;99033.52;432454;1270;108706;-41
2022/08/31 04:40:20;;;;;;;7.80;6.30;;;;;;;14.51;80.18;99038.38;432958;1270;99244;-41
2022/08/31 04:50:32;;;;;;;7.60;6.00;;;;;;;14.62;80.35;99041.49;432901;1270;112416;-41
2022/08/31 05:00:41;;;;;;;13.60;5.20;;;;;;;14.80;80.43;99041.85;432608;1270;109177;-42
2022/08/31 05:10:49;;;;;;;16.90;6.30;;;;;;;14.84;80.43;99046.53;431845;1270;99301;-42
2022/08/31 05:20:56;;;;;;;77.20;13.20;;;;;;;14.95;80.44;99047.69;432639;1270;108901;-41
2022/08/31 05:31:05;;;;;;;32.70;7.90;;;;;;;15.11;80.34;99055.91;432700;1270;99244;-41
2022/08/31 05:41:13;;;;;;;11.40;5.40;;;;;;;15.23;80.44;99066.02;432414;1270;112691;-41
2022/08/31 05:51:21;;;;;;;6.90;3.90;;;;;;;15.30;80.39;99076.33;432677;1269;108755;-41
2022/08/31 06:01:31;;;;;;;12.00;4.80;;;;;;;15.32;80.87;99084.61;432250;1270;98001;-42
2022/08/31 06:11:40;;;;;;;11.90;4.10;;;;;;;15.41;81.12;99090.10;430765;1270;2112829;-43
2022/08/31 06:21:49;;;;;;;10.90;3.90;;;;;;;15.58;81.35;99106.23;432201;1273;99238;-42
2022/08/31 06:31:55;;;;;;;8.00;3.40;;;;;;;15.68;81.48;99116.92;432529;1270;113413;-42
2022/08/31 06:42:03;;;;;;;5.70;2.50;;;;;;;15.78;81.61;99119.36;432388;1270;108931;-42
2022/08/31 06:52:10;;;;;;;6.80;2.70;;;;;;;15.83;82.25;99118.23;432465;1270;98011;-43
2022/08/31 07:02:18;;;;;;;10.00;3.20;;;;;;;15.95;82.12;99122.79;432525;1269;108808;-42
2022/08/31 07:12:25;;;;;;;4.90;2.50;;;;;;;16.08;82.28;99132.81;432748;1270;99910;-42
2022/08/31 07:22:32;;;;;;;7.80;2.50;;;;;;;16.36;81.84;99134.95;432145;1270;112441;-42
2022/08/31 07:32:38;;;;;;;6.30;2.20;;;;;;;16.64;81.40;99140.50;432281;1270;108823;-42
2022/08/31 07:42:47;;;;;;;4.00;2.50;;;;;;;16.96;81.00;99137.94;432418;1270;99213;-41
2022/08/31 07:52:57;;;;;;;6.40;2.40;;;;;;;17.28;80.24;99147.99;432583;1270;108900;-42
2022/08/31 08:13:12;;;;;;;8.80;3.50;;;;;;;17.85;79.38;99154.05;432608;1270;111366;-41
2022/08/31 08:23:20;;;;;;;6.10;2.70;;;;;;;18.12;78.26;99152.27;432473;1270;106972;-43
2022/08/31 08:33:35;;;;;;;7.20;2.90;;;;;;;18.36;77.41;99146.73;432258;1271;99257;-43
2022/08/31 08:43:45;;;;;;;3.70;1.70;;;;;;;18.98;76.47;99148.08;432335;1270;109125;-43
2022/08/31 08:54:01;;;;;;;1.60;1.10;;;;;;;19.55;74.13;99149.94;432413;1271;98988;-41
2022/08/31 09:14:24;;;;;;;4.20;1.30;;;;;;;20.30;69.77;99163.02;432571;1270;108713;-41
2022/08/31 09:24:31;;;;;;;3.90;1.10;;;;;;;20.63;69.49;99157.30;432408;1270;99261;-42
2022/08/31 09:44:47;;;;;;;4.60;1.00;;;;;;;21.22;67.84;99133.48;432386;1270;99830;-41
2022/08/31 10:15:32;;;;;;;2.40;1.10;;;;;;;20.66;65.42;99122.95;432135;1270;99251;-41
2022/08/31 10:35:51;;;;;;;5.90;0.90;;;;;;;21.66;63.62;99105.78;432334;1270;98015;-41
2022/08/31 10:46:02;;;;;;;4.70;1.40;;;;;;;21.07;61.58;99107.14;431880;1271;112525;-42
2022/08/31 10:56:14;;;;;;;2.80;2.00;;;;;;;20.51;60.75;99101.22;432651;1270;108064;-41
2022/08/31 11:06:19;;;;;;;0.90;0.80;;;;;;;20.43;59.05;99094.67;432511;1270;98847;-40
2022/08/31 11:16:32;;;;;;;1.00;0.70;;;;;;;20.31;59.47;99093.62;432332;1270;108524;-42
2022/08/31 11:26:45;;;;;;;4.60;0.80;;;;;;;20.42;60.03;99090.71;432276;1270;98158;-43
2022/08/31 11:36:49;;;;;;;1.90;1.00;;;;;;;20.68;59.48;99079.65;432473;1271;112610;-40
2022/08/31 11:47:07;;;;;;;1.80;0.90;;;;;;;20.88;58.90;99076.55;432951;1269;108959;-40
2022/08/31 11:57:19;;;;;;;2.00;0.70;;;;;;;20.45;57.41;99084.08;432621;1270;98841;-41
2022/08/31 12:07:29;;;;;;;6.60;0.80;;;;;;;20.52;55.28;99077.67;432596;1270;108301;-42
2022/08/31 12:17:44;;;;;;;2.20;0.80;;;;;;;20.76;54.42;99063.29;432360;1270;99261;-44
2022/08/31 12:27:50;;;;;;;5.20;1.50;;;;;;;20.85;52.82;99057.66;432314;1270;113073;-41
2022/08/31 12:38:03;;;;;;;2.90;0.90;;;;;;;20.55;53.07;99059.64;432592;1270;107896;-42
2022/08/31 12:48:09;;;;;;;2.30;1.00;;;;;;;20.18;53.45;99057.44;432841;1270;98668;-43
2022/08/31 12:58:20;;;;;;;4.50;1.10;;;;;;;20.44;54.73;99047.54;432658;1270;108873;-42
2022/08/31 13:08:27;;;;;;;3.40;1.00;;;;;;;20.71;54.23;99042.13;432742;1270;99275;-43
2022/08/31 13:18:35;;;;;;;2.70;0.70;;;;;;;21.12;54.06;99045.98;432594;1271;112537;-43
2022/08/31 13:38:46;;;;;;;0.90;0.60;;;;;;;21.46;52.69;99044.38;431837;1270;98633;-41
2022/08/31 13:49:00;;;;;;;1.70;0.80;;;;;;;21.01;51.13;99045.33;432430;1270;109263;-44
2022/08/31 13:59:25;;;;;;;2.40;1.00;;;;;;;20.52;50.82;99046.20;432109;1270;99326;-42
2022/08/31 14:09:32;;;;;;;4.10;1.20;;;;;;;20.42;49.66;99035.05;432711;1270;112342;-41
2022/08/31 14:19:42;;;;;;;2.90;0.70;;;;;;;20.51;48.98;99029.86;432586;1270;109021;-41
2022/08/31 14:29:50;;;;;;;1.80;0.80;;;;;;;20.58;49.90;99033.11;432897;1270;98862;-41
2022/08/31 14:40:00;;;;;;;3.20;0.70;;;;;;;20.25;49.03;99039.65;432658;1270;108837;-41
2022/08/31 14:50:17;;;;;;;2.10;0.90;;;;;;;20.08;50.39;99036.73;432536;1270;98841;-43
2022/08/31 15:00:24;;;;;;;3.30;1.10;;;;;;;20.12;50.41;99035.90;432345;1270;110076;-42
2022/08/31 15:10:32;;;;;;;4.20;0.70;;;;;;;19.99;50.64;99028.83;432725;1270;109538;-42
2022/08/31 15:20:40;;;;;;;;;;;;;;;19.88;50.73;99028.32;432407;1270;99241;-42
2022/08/31 15:30:46;;;;;;;2.00;0.80;;;;;;;19.68;51.12;99024.55;431668;1270;108565;-43
2022/08/31 15:40:53;;;;;;;3.80;1.00;;;;;;;19.49;51.69;99031.73;432727;1270;99353;-42
2022/08/31 15:51:02;;;;;;;3.10;1.40;;;;;;;19.28;52.23;99026.33;432834;1270;113217;-41
2022/08/31 16:11:14;;;;;;;3.20;1.10;;;;;;;18.98;52.96;99015.86;432742;1270;98039;-40
2022/08/31 16:21:21;;;;;;;3.00;1.10;;;;;;;18.94;53.72;99006.02;432532;1270;108916;-42
2022/08/31 16:31:29;;;;;;;6.00;1.40;;;;;;;18.70;54.09;99007.13;432417;1270;99289;-41
2022/08/31 16:41:36;;;;;;;6.70;1.30;;;;;;;18.32;54.93;99003.77;432619;1270;112378;-42
2022/08/31 16:51:42;;;;;;;1.30;0.90;;;;;;;17.95;55.66;99003.29;432618;1270;110212;-41
2022/08/31 17:01:55;;;;;;;7.10;1.90;;;;;;;17.58;56.26;99007.46;432167;1271;98037;-41
2022/08/31 17:12:06;;;;;;;6.00;2.70;;;;;;;17.28;56.98;99015.70;432662;1270;109050;-41
2022/08/31 17:22:16;;;;;;;10.10;2.80;;;;;;;16.98;57.65;99021.21;432470;1271;99244;-41
2022/08/31 17:32:31;;;;;;;8.00;3.40;;;;;;;16.76;58.14;99022.52;432289;1271;112374;-41
2022/08/31 17:42:38;;;;;;;3.70;2.80;;;;;;;16.65;58.80;99033.54;432540;1271;108861;-43
2022/08/31 17:52:46;;;;;;;9.50;3.90;;;;;;;16.47;59.08;99044.54;432388;1271;98035;-41
2022/08/31 18:02:53;;;;;;;10.00;3.70;;;;;;;16.12;60.13;99050.70;431962;1271;108764;-41
2022/08/31 18:13:02;;;;;;;5.60;3.40;;;;;;;15.87;60.80;99055.45;431707;1271;1356944;-42
2022/08/31 18:23:09;;;;;;;9.50;3.00;;;;;;;15.59;61.54;99064.55;432483;1270;111666;-41
2022/08/31 18:33:17;;;;;;;11.10;4.20;;;;;;;15.45;62.30;99074.38;432381;1271;108611;-42
2022/08/31 18:53:52;;;;;;;9.30;5.10;;;;;;;15.16;63.51;99078.04;432757;1271;108762;-41
2022/08/31 19:03:58;;;;;;;8.30;5.00;;;;;;;14.94;64.02;99086.60;432923;1269;99250;-40
2022/08/31 19:14:06;;;;;;;19.60;8.20;;;;;;;14.70;64.66;99089.80;432647;1270;112583;-41
2022/08/31 19:24:17;;;;;;;17.70;11.40;;;;;;;14.46;65.07;99086.83;432601;1270;108913;-41
2022/08/31 19:34:28;;;;;;;26.80;17.80;;;;;;;14.35;65.73;99080.14;432589;1270;98819;-42
2022/08/31 19:44:37;;;;;;;39.30;25.90;;;;;;;14.27;66.37;99076.41;432369;1270;107585;-39
2022/08/31 19:55:06;;;;;;;35.40;26.20;;;;;;;14.08;66.88;99078.02;432220;1270;99286;-40
2022/08/31 20:05:15;;;;;;;30.30;24.00;;;;;;;13.77;66.92;99075.14;432296;1270;110909;-41
2022/08/31 20:15:22;;;;;;;31.70;19.00;;;;;;;13.58;67.60;99081.98;432802;1270;108656;-41
2022/08/31 20:25:29;;;;;;;24.40;16.00;;;;;;;13.46;67.99;99081.44;432374;1270;97969;-43
2022/08/31 20:35:45;;;;;;;17.80;12.80;;;;;;;13.44;68.50;99085.80;432547;1270;108778;-41
2022/08/31 20:46:00;;;;;;;17.40;11.50;;;;;;;13.33;68.94;99088.85;432836;1269;99310;-40
2022/08/31 20:56:08;;;;;;;13.50;8.80;;;;;;;13.25;69.28;99093.14;432935;1271;112585;-42
2022/08/31 21:06:22;;;;;;;13.80;6.90;;;;;;;13.13;69.59;99093.36;432492;1270;108901;-42
2022/08/31 21:16:31;;;;;;;15.40;5.60;;;;;;;13.14;70.07;99093.00;432570;1270;99996;-40
2022/08/31 21:36:46;;;;;;;13.10;6.20;;;;;;;12.92;70.54;99087.23;432568;1270;99260;-41
2022/08/31 21:46:54;;;;;;;10.30;5.30;;;;;;;12.74;70.68;99087.64;432713;1270;112497;-40
2022/08/31 21:57:03;;;;;;;12.50;5.30;;;;;;;12.62;70.91;99093.49;432139;1270;108446;-41
2022/08/31 22:07:13;;;;;;;31.50;7.00;;;;;;;12.51;71.07;99089.90;432875;1270;99540;-41
2022/08/31 22:17:22;;;;;;;9.80;5.30;;;;;;;12.32;71.17;99096.17;432525;1270;109742;-41
2022/08/31 22:27:50;;;;;;;10.50;6.20;;;;;;;12.38;71.91;99091.18;432938;1270;98856;-40
2022/08/31 22:37:57;;;;;;;9.00;5.90;;;;;;;12.36;72.32;99086.44;432677;1270;112513;-42
2022/08/31 22:48:03;;;;;;;9.90;6.10;;;;;;;12.19;72.23;99076.06;433132;1270;108787;-39
2022/08/31 23:08:21;;;;;;;11.70;4.60;;;;;;;12.14;72.76;99070.48;432906;1270;108921;-41
2022/08/31 23:18:30;;;;;;;8.50;4.50;;;;;;;12.13;72.98;99068.34;432484;1270;99420;-41
2022/08/31 23:28:36;;;;;;;9.30;4.70;;;;;;;12.12;73.16;99069.94;432894;1270;113080;-40
2022/08/31 23:38:48;;;;;;;7.10;6.00;;;;;;;12.01;73.46;99067.22;432987;1270;108637;-40
2022/08/31 23:48:55;;;;;;;6.60;4.60;;;;;;;11.92;73.52;99070.78;432307;1270;99269;-42
